sensor_id;sensor_type;location;lat;lon;timestamp;pressure;altitude;pressure_sealevel;temperature;humidity
43804;BME280;29430;52.924;-2.388;2023-02-11T00:04:22;100990.81;;;8.52;100.00
43804;BME280;29430;52.924;-2.388;2023-02-11T00:09:15;100980.19;;;8.51;100.00
43804;BME280;29430;52.924;-2.388;2023-02-11T00:14:08;100983.75;;;8.51;100.00
43804;BME280;29430;52.924;-2.388;2023-02-11T00:19:02;100982.22;;;8.49;100.00
43804;BME280;29430;52.924;-2.388;2023-02-11T00:23:56;100953.00;;;8.44;100.00
43804;BME280;29430;52.924;-2.388;2023-02-11T00:28:51;100954.69;;;8.45;100.00
43804;BME280;29430;52.924;-2.388;2023-02-11T00:33:43;100961.13;;;8.44;100.00
43804;BME280;29430;52.924;-2.388;2023-02-11T00:38:35;100953.16;;;8.42;100.00
43804;BME280;29430;52.924;-2.388;2023-02-11T00:43:26;100944.53;;;8.39;100.00
43804;BME280;29430;52.924;-2.388;2023-02-11T00:48:19;100937.44;;;8.38;100.00
43804;BME280;29430;52.924;-2.388;2023-02-11T00:53:11;100942.53;;;8.33;100.00
43804;BME280;29430;52.924;-2.388;2023-02-11T00:58:03;100952.13;;;8.35;100.00
43804;BME280;29430;52.924;-2.388;2023-02-11T01:02:55;100963.28;;;8.32;100.00
43804;BME280;29430;52.924;-2.388;2023-02-11T01:07:47;100962.63;;;8.30;100.00
43804;BME280;29430;52.924;-2.388;2023-02-11T01:12:39;100977.84;;;8.31;100.00
43804;BME280;29430;52.924;-2.388;2023-02-11T01:17:31;100982.22;;;8.32;100.00
43804;BME280;29430;52.924;-2.388;2023-02-11T01:22:24;100992.03;;;8.33;100.00
43804;BME280;29430;52.924;-2.388;2023-02-11T01:27:17;100982.75;;;8.36;100.00
43804;BME280;29430;52.924;-2.388;2023-02-11T01:32:09;100974.47;;;8.37;100.00
43804;BME280;29430;52.924;-2.388;2023-02-11T01:37:01;100971.25;;;8.42;100.00
43804;BME280;29430;52.924;-2.388;2023-02-11T01:41:53;100979.22;;;8.44;100.00
43804;BME280;29430;52.924;-2.388;2023-02-11T01:46:45;100980.69;;;8.46;100.00
43804;BME280;29430;52.924;-2.388;2023-02-11T01:51:40;100976.66;;;8.50;100.00
43804;BME280;29430;52.924;-2.388;2023-02-11T01:56:36;100980.88;;;8.53;100.00
43804;BME280;29430;52.924;-2.388;2023-02-11T02:01:54;100970.88;;;8.53;100.00
43804;BME280;29430;52.924;-2.388;2023-02-11T02:07:08;100979.00;;;8.53;100.00
43804;BME280;29430;52.924;-2.388;2023-02-11T02:12:01;100985.41;;;8.52;100.00
43804;BME280;29430;52.924;-2.388;2023-02-11T02:16:53;100984.75;;;8.50;100.00
43804;BME280;29430;52.924;-2.388;2023-02-11T02:27:12;101001.13;;;8.57;100.00
43804;BME280;29430;52.924;-2.388;2023-02-11T02:32:28;100996.94;;;8.54;99.64
43804;BME280;29430;52.924;-2.388;2023-02-11T02:37:32;101002.34;;;8.54;99.31
43804;BME280;29430;52.924;-2.388;2023-02-11T02:42:27;101001.47;;;8.54;98.86
43804;BME280;29430;52.924;-2.388;2023-02-11T02:47:18;100997.09;;;8.53;97.98
43804;BME280;29430;52.924;-2.388;2023-02-11T02:52:41;100997.09;;;8.53;97.93
43804;BME280;29430;52.924;-2.388;2023-02-11T03:08:31;100977.31;;;8.52;96.95
43804;BME280;29430;52.924;-2.388;2023-02-11T03:13:28;100981.22;;;8.50;97.16
43804;BME280;29430;52.924;-2.388;2023-02-11T03:18:26;100984.94;;;8.49;96.88
43804;BME280;29430;52.924;-2.388;2023-02-11T03:23:55;100986.28;;;8.53;97.44
43804;BME280;29430;52.924;-2.388;2023-02-11T03:29:09;100971.38;;;8.57;96.47
43804;BME280;29430;52.924;-2.388;2023-02-11T03:34:11;100975.94;;;8.56;96.48
43804;BME280;29430;52.924;-2.388;2023-02-11T03:39:06;100972.75;;;8.53;96.28
43804;BME280;29430;52.924;-2.388;2023-02-11T03:44:00;100983.41;;;8.54;96.10
43804;BME280;29430;52.924;-2.388;2023-02-11T03:48:57;100982.38;;;8.55;96.32
43804;BME280;29430;52.924;-2.388;2023-02-11T03:53:54;100975.28;;;8.54;96.17
43804;BME280;29430;52.924;-2.388;2023-02-11T03:58:47;100983.56;;;8.53;95.95
43804;BME280;29430;52.924;-2.388;2023-02-11T04:03:39;100990.00;;;8.52;95.76
43804;BME280;29430;52.924;-2.388;2023-02-11T04:08:31;100994.41;;;8.53;96.06
43804;BME280;29430;52.924;-2.388;2023-02-11T04:13:23;101004.88;;;8.48;95.39
43804;BME280;29430;52.924;-2.388;2023-02-11T04:18:15;101018.38;;;8.48;95.03
43804;BME280;29430;52.924;-2.388;2023-02-11T04:23:06;101003.69;;;8.50;95.31
43804;BME280;29430;52.924;-2.388;2023-02-11T04:27:58;100999.97;;;8.51;94.80
43804;BME280;29430;52.924;-2.388;2023-02-11T04:32:52;101010.09;;;8.49;94.77
43804;BME280;29430;52.924;-2.388;2023-02-11T04:37:45;101006.91;;;8.46;95.20
43804;BME280;29430;52.924;-2.388;2023-02-11T04:42:36;101006.06;;;8.45;95.21
43804;BME280;29430;52.924;-2.388;2023-02-11T04:47:29;101012.63;;;8.42;95.25
43804;BME280;29430;52.924;-2.388;2023-02-11T04:52:21;101017.06;;;8.44;95.77
43804;BME280;29430;52.924;-2.388;2023-02-11T04:57:13;101027.88;;;8.44;95.92
43804;BME280;29430;52.924;-2.388;2023-02-11T05:02:05;101034.25;;;8.42;96.03
43804;BME280;29430;52.924;-2.388;2023-02-11T05:06:57;101027.16;;;8.41;95.97
43804;BME280;29430;52.924;-2.388;2023-02-11T05:11:49;101029.00;;;8.41;96.39
43804;BME280;29430;52.924;-2.388;2023-02-11T05:16:41;101037.78;;;8.43;96.10
43804;BME280;29430;52.924;-2.388;2023-02-11T05:21:33;101026.00;;;8.44;96.39
43804;BME280;29430;52.924;-2.388;2023-02-11T05:26:25;101035.63;;;8.47;96.28
43804;BME280;29430;52.924;-2.388;2023-02-11T05:31:17;101038.19;;;8.48;96.06
43804;BME280;29430;52.924;-2.388;2023-02-11T05:36:11;101035.81;;;8.45;96.24
43804;BME280;29430;52.924;-2.388;2023-02-11T05:41:04;101040.66;;;8.41;95.74
43804;BME280;29430;52.924;-2.388;2023-02-11T05:45:56;101060.78;;;8.39;96.03
43804;BME280;29430;52.924;-2.388;2023-02-11T05:50:48;101068.03;;;8.38;95.92
43804;BME280;29430;52.924;-2.388;2023-02-11T05:55:39;101063.66;;;8.37;95.68
43804;BME280;29430;52.924;-2.388;2023-02-11T06:00:31;101065.16;;;8.40;95.88
43804;BME280;29430;52.924;-2.388;2023-02-11T06:05:23;101059.94;;;8.38;95.20
43804;BME280;29430;52.924;-2.388;2023-02-11T06:10:15;101053.69;;;8.38;95.67
43804;BME280;29430;52.924;-2.388;2023-02-11T06:15:07;101055.22;;;8.40;95.23
43804;BME280;29430;52.924;-2.388;2023-02-11T06:19:59;101061.13;;;8.36;94.92
43804;BME280;29430;52.924;-2.388;2023-02-11T06:24:53;101069.75;;;8.31;95.22
43804;BME280;29430;52.924;-2.388;2023-02-11T06:29:52;101073.97;;;8.34;95.34
43804;BME280;29430;52.924;-2.388;2023-02-11T06:34:44;101080.22;;;8.34;95.47
43804;BME280;29430;52.924;-2.388;2023-02-11T06:39:36;101064.84;;;8.35;95.32
43804;BME280;29430;52.924;-2.388;2023-02-11T06:44:28;101066.72;;;8.34;95.46
43804;BME280;29430;52.924;-2.388;2023-02-11T06:49:20;101069.41;;;8.34;94.46
43804;BME280;29430;52.924;-2.388;2023-02-11T06:54:12;101074.13;;;8.32;94.11
43804;BME280;29430;52.924;-2.388;2023-02-11T06:59:03;101077.88;;;8.31;93.60
43804;BME280;29430;52.924;-2.388;2023-02-11T07:03:56;101092.56;;;8.29;93.14
43804;BME280;29430;52.924;-2.388;2023-02-11T07:08:48;101092.72;;;8.27;93.49
43804;BME280;29430;52.924;-2.388;2023-02-11T07:13:40;101091.19;;;8.24;93.77
43804;BME280;29430;52.924;-2.388;2023-02-11T07:18:32;101099.84;;;8.28;93.48
43804;BME280;29430;52.924;-2.388;2023-02-11T07:23:23;101097.13;;;8.28;94.02
43804;BME280;29430;52.924;-2.388;2023-02-11T07:28:15;101102.38;;;8.30;93.34
43804;BME280;29430;52.924;-2.388;2023-02-11T07:33:08;101114.50;;;8.25;92.45
43804;BME280;29430;52.924;-2.388;2023-02-11T07:38:00;101120.41;;;8.21;93.05
43804;BME280;29430;52.924;-2.388;2023-02-11T07:42:52;101123.47;;;8.18;93.36
43804;BME280;29430;52.924;-2.388;2023-02-11T07:47:44;101129.38;;;8.21;93.40
43804;BME280;29430;52.924;-2.388;2023-02-11T07:52:36;101122.97;;;8.22;93.54
43804;BME280;29430;52.924;-2.388;2023-02-11T07:57:28;101132.94;;;8.22;93.51
43804;BME280;29430;52.924;-2.388;2023-02-11T08:02:20;101133.94;;;8.21;93.18
43804;BME280;29430;52.924;-2.388;2023-02-11T08:07:16;101138.50;;;8.20;93.35
43804;BME280;29430;52.924;-2.388;2023-02-11T08:12:08;101130.56;;;8.19;93.13
43804;BME280;29430;52.924;-2.388;2023-02-11T08:16:59;101132.41;;;8.18;93.01
43804;BME280;29430;52.924;-2.388;2023-02-11T08:21:55;101133.28;;;8.19;93.21
43804;BME280;29430;52.924;-2.388;2023-02-11T08:26:47;101135.63;;;8.22;92.99
43804;BME280;29430;52.924;-2.388;2023-02-11T08:31:41;101138.19;;;8.23;92.94
43804;BME280;29430;52.924;-2.388;2023-02-11T08:36:36;101143.09;;;8.28;92.77
43804;BME280;29430;52.924;-2.388;2023-02-11T08:41:31;101153.03;;;8.28;92.75
43804;BME280;29430;52.924;-2.388;2023-02-11T08:46:24;101159.81;;;8.32;92.13
43804;BME280;29430;52.924;-2.388;2023-02-11T08:51:19;101162.50;;;8.32;91.88
43804;BME280;29430;52.924;-2.388;2023-02-11T08:56:12;101168.75;;;8.32;92.35
43804;BME280;29430;52.924;-2.388;2023-02-11T09:01:09;101167.25;;;8.38;92.49
43804;BME280;29430;52.924;-2.388;2023-02-11T09:06:04;101170.84;;;8.47;92.00
43804;BME280;29430;52.924;-2.388;2023-02-11T09:10:56;101180.44;;;8.49;91.43
43804;BME280;29430;52.924;-2.388;2023-02-11T09:15:48;101182.81;;;8.52;91.14
43804;BME280;29430;52.924;-2.388;2023-02-11T09:20:39;101174.03;;;8.58;91.48
43804;BME280;29430;52.924;-2.388;2023-02-11T09:25:31;101167.94;;;8.65;91.58
43804;BME280;29430;52.924;-2.388;2023-02-11T09:30:23;101166.44;;;8.70;91.83
43804;BME280;29430;52.924;-2.388;2023-02-11T09:35:15;101173.69;;;8.78;91.52
43804;BME280;29430;52.924;-2.388;2023-02-11T09:40:07;101173.84;;;8.85;91.78
43804;BME280;29430;52.924;-2.388;2023-02-11T09:45:02;101172.50;;;8.97;91.98
43804;BME280;29430;52.924;-2.388;2023-02-11T09:50:01;101174.34;;;9.13;91.49
43804;BME280;29430;52.924;-2.388;2023-02-11T09:55:00;101172.63;;;9.28;90.73
43804;BME280;29430;52.924;-2.388;2023-02-11T09:59:55;101172.25;;;9.40;89.71
43804;BME280;29430;52.924;-2.388;2023-02-11T10:10:39;101179.63;;;9.62;90.11
43804;BME280;29430;52.924;-2.388;2023-02-11T10:15:41;101186.00;;;9.78;89.58
43804;BME280;29430;52.924;-2.388;2023-02-11T10:20:43;101181.19;;;9.88;88.32
43804;BME280;29430;52.924;-2.388;2023-02-11T10:25:40;101195.72;;;9.95;88.07
43804;BME280;29430;52.924;-2.388;2023-02-11T10:30:43;101202.72;;;10.13;88.04
43804;BME280;29430;52.924;-2.388;2023-02-11T10:35:40;101193.34;;;10.24;86.89
43804;BME280;29430;52.924;-2.388;2023-02-11T10:40:34;101209.25;;;10.35;86.01
43804;BME280;29430;52.924;-2.388;2023-02-11T10:46:04;101217.16;;;10.45;85.37
43804;BME280;29430;52.924;-2.388;2023-02-11T10:50:49;101219.81;;;10.53;84.53
43804;BME280;29430;52.924;-2.388;2023-02-11T10:55:53;101213.84;;;10.57;83.29
43804;BME280;29430;52.924;-2.388;2023-02-11T11:00:51;101200.38;;;10.64;83.74
43804;BME280;29430;52.924;-2.388;2023-02-11T11:05:57;101200.56;;;10.63;83.36
43804;BME280;29430;52.924;-2.388;2023-02-11T11:11:05;101214.81;;;10.65;82.75
43804;BME280;29430;52.924;-2.388;2023-02-11T11:21:12;101210.16;;;10.73;82.54
43804;BME280;29430;52.924;-2.388;2023-02-11T11:26:11;101205.88;;;10.79;81.32
43804;BME280;29430;52.924;-2.388;2023-02-11T11:31:05;101200.34;;;10.87;81.53
43804;BME280;29430;52.924;-2.388;2023-02-11T11:36:09;101202.16;;;10.95;80.69
43804;BME280;29430;52.924;-2.388;2023-02-11T11:41:22;101211.09;;;11.04;81.14
43804;BME280;29430;52.924;-2.388;2023-02-11T11:46:29;101212.50;;;11.15;81.44
43804;BME280;29430;52.924;-2.388;2023-02-11T11:51:23;101192.28;;;11.32;81.86
43804;BME280;29430;52.924;-2.388;2023-02-11T11:56:25;101191.16;;;11.41;79.82
43804;BME280;29430;52.924;-2.388;2023-02-11T12:01:57;101189.78;;;11.45;79.02
43804;BME280;29430;52.924;-2.388;2023-02-11T12:12:37;101148.28;;;11.52;78.53
43804;BME280;29430;52.924;-2.388;2023-02-11T12:18:10;101147.50;;;11.58;78.92
43804;BME280;29430;52.924;-2.388;2023-02-11T12:38:52;101163.25;;;11.47;77.12
43804;BME280;29430;52.924;-2.388;2023-02-11T12:43:49;101164.09;;;11.33;77.09
43804;BME280;29430;52.924;-2.388;2023-02-11T12:49:08;101158.09;;;11.23;77.29
43804;BME280;29430;52.924;-2.388;2023-02-11T12:54:21;101147.97;;;11.17;76.38
43804;BME280;29430;52.924;-2.388;2023-02-11T13:04:36;101166.25;;;11.23;75.53
43804;BME280;29430;52.924;-2.388;2023-02-11T13:09:34;101158.66;;;11.18;76.00
43804;BME280;29430;52.924;-2.388;2023-02-11T13:14:33;101170.94;;;11.14;76.72
43804;BME280;29430;52.924;-2.388;2023-02-11T13:19:29;101161.28;;;11.11;76.31
43804;BME280;29430;52.924;-2.388;2023-02-11T13:35:25;101159.66;;;10.87;76.23
43804;BME280;29430;52.924;-2.388;2023-02-11T13:39:36;101169.56;;;10.80;76.95
43804;BME280;29430;52.924;-2.388;2023-02-11T13:44:27;101163.19;;;10.73;77.61
43804;BME280;29430;52.924;-2.388;2023-02-11T13:49:26;101165.25;;;10.71;76.78
43804;BME280;29430;52.924;-2.388;2023-02-11T13:54:33;101160.00;;;10.69;78.09
43804;BME280;29430;52.924;-2.388;2023-02-11T14:04:24;101160.94;;;10.77;78.05
43804;BME280;29430;52.924;-2.388;2023-02-11T14:09:38;101137.66;;;10.82;78.70
43804;BME280;29430;52.924;-2.388;2023-02-11T14:14:31;101143.00;;;10.90;78.04
43804;BME280;29430;52.924;-2.388;2023-02-11T14:29:18;101129.72;;;10.96;77.03
43804;BME280;29430;52.924;-2.388;2023-02-11T14:39:28;101125.78;;;10.98;76.30
43804;BME280;29430;52.924;-2.388;2023-02-11T14:44:27;101132.63;;;10.94;76.73
43804;BME280;29430;52.924;-2.388;2023-02-11T14:49:32;101125.03;;;10.89;77.01
43804;BME280;29430;52.924;-2.388;2023-02-11T14:54:27;101125.22;;;10.88;77.65
43804;BME280;29430;52.924;-2.388;2023-02-11T14:59:21;101138.13;;;10.86;77.19
43804;BME280;29430;52.924;-2.388;2023-02-11T15:04:25;101135.75;;;10.83;77.32
43804;BME280;29430;52.924;-2.388;2023-02-11T15:09:20;101137.47;;;10.84;77.61
43804;BME280;29430;52.924;-2.388;2023-02-11T15:14:27;101147.00;;;10.80;77.42
43804;BME280;29430;52.924;-2.388;2023-02-11T15:19:34;101144.00;;;10.74;78.16
43804;BME280;29430;52.924;-2.388;2023-02-11T15:24:29;101139.59;;;10.73;77.97
43804;BME280;29430;52.924;-2.388;2023-02-11T15:29:27;101148.97;;;10.71;77.77
43804;BME280;29430;52.924;-2.388;2023-02-11T15:34:20;101157.47;;;10.68;77.88
43804;BME280;29430;52.924;-2.388;2023-02-11T15:39:28;101161.00;;;10.68;78.31
43804;BME280;29430;52.924;-2.388;2023-02-11T15:44:32;101167.09;;;10.70;77.94
43804;BME280;29430;52.924;-2.388;2023-02-11T15:49:24;101175.97;;;10.64;78.14
43804;BME280;29430;52.924;-2.388;2023-02-11T15:54:19;101177.56;;;10.59;78.83
43804;BME280;29430;52.924;-2.388;2023-02-11T16:04:28;101182.47;;;10.55;78.43
43804;BME280;29430;52.924;-2.388;2023-02-11T16:09:34;101188.94;;;10.54;78.92
43804;BME280;29430;52.924;-2.388;2023-02-11T16:19:19;101189.84;;;10.46;78.72
43804;BME280;29430;52.924;-2.388;2023-02-11T16:24:23;101202.94;;;10.43;79.58
43804;BME280;29430;52.924;-2.388;2023-02-11T16:29:26;101195.81;;;10.42;79.83
43804;BME280;29430;52.924;-2.388;2023-02-11T16:34:23;101188.88;;;10.39;80.11
43804;BME280;29430;52.924;-2.388;2023-02-11T16:39:16;101205.50;;;10.36;80.22
43804;BME280;29430;52.924;-2.388;2023-02-11T16:44:08;101202.28;;;10.32;79.53
43804;BME280;29430;52.924;-2.388;2023-02-11T16:49:09;101198.06;;;10.30;80.13
43804;BME280;29430;52.924;-2.388;2023-02-11T16:54:02;101204.53;;;10.29;80.68
43804;BME280;29430;52.924;-2.388;2023-02-11T16:58:53;101194.69;;;10.28;79.82
43804;BME280;29430;52.924;-2.388;2023-02-11T17:03:45;101198.59;;;10.25;80.19
43804;BME280;29430;52.924;-2.388;2023-02-11T17:08:37;101200.66;;;10.23;80.27
43804;BME280;29430;52.924;-2.388;2023-02-11T17:13:30;101203.53;;;10.21;81.06
43804;BME280;29430;52.924;-2.388;2023-02-11T17:18:22;101213.91;;;10.18;80.33
43804;BME280;29430;52.924;-2.388;2023-02-11T17:23:13;101212.56;;;10.14;80.52
43804;BME280;29430;52.924;-2.388;2023-02-11T17:28:07;101216.13;;;10.14;80.64
43804;BME280;29430;52.924;-2.388;2023-02-11T17:32:59;101221.22;;;10.09;80.30
43804;BME280;29430;52.924;-2.388;2023-02-11T17:37:51;101224.66;;;10.03;80.24
43804;BME280;29430;52.924;-2.388;2023-02-11T17:42:43;101226.19;;;9.97;79.96
43804;BME280;29430;52.924;-2.388;2023-02-11T17:47:35;101220.47;;;9.92;81.40
43804;BME280;29430;52.924;-2.388;2023-02-11T17:52:27;101233.53;;;9.89;81.29
43804;BME280;29430;52.924;-2.388;2023-02-11T17:57:19;101232.66;;;9.88;81.34
43804;BME280;29430;52.924;-2.388;2023-02-11T18:02:11;101241.50;;;9.90;81.42
43804;BME280;29430;52.924;-2.388;2023-02-11T18:07:03;101236.59;;;9.85;81.25
43804;BME280;29430;52.924;-2.388;2023-02-11T18:11:55;101240.19;;;9.78;81.62
43804;BME280;29430;52.924;-2.388;2023-02-11T18:16:51;101252.03;;;9.77;81.72
43804;BME280;29430;52.924;-2.388;2023-02-11T18:21:44;101248.84;;;9.73;82.63
43804;BME280;29430;52.924;-2.388;2023-02-11T18:26:39;101244.59;;;9.71;82.90
43804;BME280;29430;52.924;-2.388;2023-02-11T18:31:33;101258.00;;;9.64;82.97
43804;BME280;29430;52.924;-2.388;2023-02-11T18:36:25;101253.44;;;9.64;83.18
43804;BME280;29430;52.924;-2.388;2023-02-11T18:41:17;101251.38;;;9.66;82.89
43804;BME280;29430;52.924;-2.388;2023-02-11T18:46:10;101256.97;;;9.65;83.14
43804;BME280;29430;52.924;-2.388;2023-02-11T18:51:11;101259.84;;;9.63;82.75
43804;BME280;29430;52.924;-2.388;2023-02-11T18:56:12;101259.00;;;9.63;83.31
43804;BME280;29430;52.924;-2.388;2023-02-11T19:01:17;101264.78;;;9.60;83.69
43804;BME280;29430;52.924;-2.388;2023-02-11T19:06:17;101259.22;;;9.53;83.58
43804;BME280;29430;52.924;-2.388;2023-02-11T19:11:11;101262.63;;;9.47;84.17
43804;BME280;29430;52.924;-2.388;2023-02-11T19:16:07;101264.47;;;9.46;84.17
43804;BME280;29430;52.924;-2.388;2023-02-11T19:21:09;101257.88;;;9.41;84.73
43804;BME280;29430;52.924;-2.388;2023-02-11T19:26:02;101267.38;;;9.37;84.76
43804;BME280;29430;52.924;-2.388;2023-02-11T19:30:54;101278.84;;;9.39;84.49
43804;BME280;29430;52.924;-2.388;2023-02-11T19:35:47;101285.63;;;9.43;84.71
43804;BME280;29430;52.924;-2.388;2023-02-11T19:40:39;101282.94;;;9.35;84.27
43804;BME280;29430;52.924;-2.388;2023-02-11T19:45:31;101272.47;;;9.31;84.92
43804;BME280;29430;52.924;-2.388;2023-02-11T19:50:23;101275.34;;;9.30;85.19
43804;BME280;29430;52.924;-2.388;2023-02-11T19:55:15;101287.19;;;9.29;85.42
43804;BME280;29430;52.924;-2.388;2023-02-11T20:00:07;101289.03;;;9.28;85.50
43804;BME280;29430;52.924;-2.388;2023-02-11T20:05:01;101278.03;;;9.30;85.14
43804;BME280;29430;52.924;-2.388;2023-02-11T20:09:54;101276.16;;;9.30;85.11
43804;BME280;29430;52.924;-2.388;2023-02-11T20:14:46;101280.59;;;9.31;84.96
43804;BME280;29430;52.924;-2.388;2023-02-11T20:19:38;101286.16;;;9.38;85.47
43804;BME280;29430;52.924;-2.388;2023-02-11T20:24:29;101288.19;;;9.36;84.76
43804;BME280;29430;52.924;-2.388;2023-02-11T20:29:22;101295.13;;;9.30;84.88
43804;BME280;29430;52.924;-2.388;2023-02-11T20:34:14;101295.78;;;9.32;85.85
43804;BME280;29430;52.924;-2.388;2023-02-11T20:39:10;101288.38;;;9.35;85.11
43804;BME280;29430;52.924;-2.388;2023-02-11T20:44:09;101288.38;;;9.35;85.19
43804;BME280;29430;52.924;-2.388;2023-02-11T20:49:01;101281.06;;;9.35;85.49
43804;BME280;29430;52.924;-2.388;2023-02-11T20:53:54;101276.66;;;9.34;85.51
43804;BME280;29430;52.924;-2.388;2023-02-11T20:58:46;101286.00;;;9.31;85.03
43804;BME280;29430;52.924;-2.388;2023-02-11T21:03:39;101278.53;;;9.34;85.52
43804;BME280;29430;52.924;-2.388;2023-02-11T21:08:31;101291.59;;;9.30;85.06
43804;BME280;29430;52.924;-2.388;2023-02-11T21:13:23;101289.03;;;9.28;85.01
43804;BME280;29430;52.924;-2.388;2023-02-11T21:18:15;101304.59;;;9.26;85.01
43804;BME280;29430;52.924;-2.388;2023-02-11T21:23:07;101299.19;;;9.26;84.86
43804;BME280;29430;52.924;-2.388;2023-02-11T21:27:58;101314.41;;;9.27;84.34
43804;BME280;29430;52.924;-2.388;2023-02-11T21:32:51;101306.63;;;9.24;84.36
43804;BME280;29430;52.924;-2.388;2023-02-11T21:37:43;101316.81;;;9.22;84.41
43804;BME280;29430;52.924;-2.388;2023-02-11T21:42:34;101309.69;;;9.21;84.56
43804;BME280;29430;52.924;-2.388;2023-02-11T21:47:27;101313.72;;;9.17;84.13
43804;BME280;29430;52.924;-2.388;2023-02-11T21:52:18;101315.78;;;9.15;84.16
43804;BME280;29430;52.924;-2.388;2023-02-11T21:57:10;101317.28;;;9.09;84.29
43804;BME280;29430;52.924;-2.388;2023-02-11T22:02:02;101314.06;;;9.06;84.10
43804;BME280;29430;52.924;-2.388;2023-02-11T22:06:54;101316.13;;;9.04;84.29
43804;BME280;29430;52.924;-2.388;2023-02-11T22:11:46;101316.94;;;9.04;84.11
43804;BME280;29430;52.924;-2.388;2023-02-11T22:16:39;101309.66;;;9.05;83.86
43804;BME280;29430;52.924;-2.388;2023-02-11T22:21:31;101312.88;;;9.00;83.42
43804;BME280;29430;52.924;-2.388;2023-02-11T22:26:25;101307.47;;;8.92;83.85
43804;BME280;29430;52.924;-2.388;2023-02-11T22:31:20;101313.56;;;8.94;83.91
43804;BME280;29430;52.924;-2.388;2023-02-11T22:36:16;101318.28;;;8.92;83.63
43804;BME280;29430;52.924;-2.388;2023-02-11T22:41:09;101317.25;;;8.85;83.86
43804;BME280;29430;52.924;-2.388;2023-02-11T22:46:02;101313.88;;;8.83;83.89
43804;BME280;29430;52.924;-2.388;2023-02-11T22:50:54;101307.09;;;8.78;83.99
43804;BME280;29430;52.924;-2.388;2023-02-11T22:55:45;101325.72;;;8.82;83.84
43804;BME280;29430;52.924;-2.388;2023-02-11T23:00:39;101315.38;;;8.77;83.68
43804;BME280;29430;52.924;-2.388;2023-02-11T23:05:39;101325.38;;;8.76;83.83
43804;BME280;29430;52.924;-2.388;2023-02-11T23:10:33;101308.63;;;8.73;83.66
43804;BME280;29430;52.924;-2.388;2023-02-11T23:15:25;101321.28;;;8.72;82.96
43804;BME280;29430;52.924;-2.388;2023-02-11T23:20:17;101306.75;;;8.65;83.89
43804;BME280;29430;52.924;-2.388;2023-02-11T23:25:09;101314.88;;;8.65;83.97
43804;BME280;29430;52.924;-2.388;2023-02-11T23:30:01;101330.25;;;8.65;83.82
43804;BME280;29430;52.924;-2.388;2023-02-11T23:34:53;101329.91;;;8.68;84.08
43804;BME280;29430;52.924;-2.388;2023-02-11T23:39:45;101335.16;;;8.69;83.78
43804;BME280;29430;52.924;-2.388;2023-02-11T23:44:37;101332.59;;;8.68;83.19
43804;BME280;29430;52.924;-2.388;2023-02-11T23:49:28;101339.22;;;8.65;83.60
43804;BME280;29430;52.924;-2.388;2023-02-11T23:54:20;101339.38;;;8.64;83.94
43804;BME280;29430;52.924;-2.388;2023-02-11T23:59:12;101344.97;;;8.62;84.04
